PWSweather.com
Personal Weather Stations
Station Observations
DEEPSOUTH
Waverley, InvercargillNZ 9810

WaverleyInvercargillNZ 9810

Lat: -46.3926834, Lon: 168.381112

Elevation: 72

Station Type: Davis VP2

http://www.deepsouthweather.co.nz/

High Low Average
Temperature 57.7°F14.3°C 48.7°F9.3°C 53.0°F11.7°C
Dew Point 57.0°F13.9°C 48.2°F9.0°C 52.3°F11.3°C
Winds 9.0 mph 14.5 kmh Calm Calm 4.0 mph S6.4 kmh S
Wind Gusts 18.0 mph29.0 kmh -- 8.0 mph12.9 kmh
Humidity 99% 96% 98%
Pressure 29.80 in1009.1 mb 29.57 in1001.4 mb -
Precipitation 0.83 in21.1 mm - -
Hour Temp Dew Point Humidity Winds Wind Gusts Pressure Precip Precip Rate Daily Precip Total
12:14 AM 57.7°F14.3°C 56.6°F13.7°C 96% Calm Calm -- 29.58 in1001.7 mb 0.04 in1.0 mm 0.17 in/hr4.3 mm/hr 0.08 in2.0 mm
12:29 AM 57.7°F14.3°C 56.6°F13.7°C 96% Calm Calm -- 29.59 in1002.0 mb 0.03 in0.8 mm 0.00 in/hr0.0 mm/hr 0.09 in2.3 mm
12:44 AM 57.7°F14.3°C 56.6°F13.7°C 96% Calm Calm -- 29.58 in1001.7 mb 0.03 in0.8 mm 0.00 in/hr0.0 mm/hr 0.09 in2.3 mm
12:59 AM 57.7°F14.3°C 56.6°F13.7°C 96% Calm Calm 2.0 mph3.2 kmh 29.58 in1001.7 mb 0.02 in0.5 mm 0.00 in/hr0.0 mm/hr 0.09 in2.3 mm
01:14 AM 57.7°F14.3°C 56.6°F13.7°C 96% Calm Calm 1.0 mph1.6 kmh 29.58 in1001.7 mb 0.02 in0.5 mm 0.00 in/hr0.0 mm/hr 0.10 in2.5 mm
01:29 AM 57.7°F14.3°C 56.9°F13.8°C 97% 1.0 mph SE1.6 kmh SE 2.0 mph3.2 kmh 29.57 in1001.4 mb 0.02 in0.5 mm 0.00 in/hr0.0 mm/hr 0.10 in2.5 mm
01:44 AM 57.7°F14.3°C 56.9°F13.8°C 97% Calm Calm 2.0 mph3.2 kmh 29.57 in1001.4 mb 0.02 in0.5 mm 0.00 in/hr0.0 mm/hr 0.10 in2.5 mm
01:59 AM 57.7°F14.3°C 56.9°F13.8°C 97% 1.0 mph S1.6 kmh S 2.0 mph3.2 kmh 29.58 in1001.7 mb 0.01 in0.3 mm 0.00 in/hr0.0 mm/hr 0.10 in2.5 mm
02:14 AM 57.7°F14.3°C 56.9°F13.8°C 97% Calm Calm 2.0 mph3.2 kmh 29.57 in1001.4 mb 0.00 in0.0 mm 0.00 in/hr0.0 mm/hr 0.10 in2.5 mm
02:29 AM 57.6°F14.2°C 56.7°F13.7°C 97% Calm Calm 2.0 mph3.2 kmh 29.57 in1001.4 mb 0.00 in0.0 mm 0.00 in/hr0.0 mm/hr 0.10 in2.5 mm
02:44 AM 57.6°F14.2°C 56.7°F13.7°C 97% Calm Calm 2.0 mph3.2 kmh 29.57 in1001.4 mb 0.00 in0.0 mm 0.00 in/hr0.0 mm/hr 0.10 in2.5 mm
02:59 AM 57.6°F14.2°C 56.7°F13.7°C 97% 2.0 mph S3.2 kmh S 4.0 mph6.4 kmh 29.57 in1001.4 mb 0.00 in0.0 mm 0.00 in/hr0.0 mm/hr 0.10 in2.5 mm
03:14 AM 57.6°F14.2°C 56.7°F13.7°C 97% 1.0 mph WSW1.6 kmh WSW 3.0 mph4.8 kmh 29.57 in1001.4 mb 0.01 in0.3 mm 0.01 in/hr0.3 mm/hr 0.12 in3.0 mm
03:29 AM 57.6°F14.2°C 56.7°F13.7°C 97% 1.0 mph WSW1.6 kmh WSW 3.0 mph4.8 kmh 29.57 in1001.4 mb 0.02 in0.5 mm 0.04 in/hr1.0 mm/hr 0.13 in3.3 mm
03:44 AM 57.7°F14.3°C 56.9°F13.8°C 97% 1.0 mph SSW1.6 kmh SSW 4.0 mph6.4 kmh 29.57 in1001.4 mb 0.03 in0.8 mm 0.04 in/hr1.0 mm/hr 0.13 in3.3 mm
03:59 AM 57.6°F14.2°C 56.7°F13.7°C 97% 1.0 mph SSW1.6 kmh SSW 5.0 mph8.0 kmh 29.57 in1001.4 mb 0.03 in0.8 mm 0.00 in/hr0.0 mm/hr 0.13 in3.3 mm
04:14 AM 57.6°F14.2°C 57.0°F13.9°C 98% Calm Calm 2.0 mph3.2 kmh 29.58 in1001.7 mb 0.04 in1.0 mm 0.01 in/hr0.3 mm/hr 0.15 in3.8 mm
04:29 AM 57.6°F14.2°C 57.0°F13.9°C 98% 1.0 mph S1.6 kmh S 4.0 mph6.4 kmh 29.59 in1002.0 mb 0.09 in2.3 mm 0.20 in/hr5.1 mm/hr 0.21 in5.3 mm
04:44 AM 57.6°F14.2°C 57.0°F13.9°C 98% 1.0 mph WSW1.6 kmh WSW 3.0 mph4.8 kmh 29.59 in1002.0 mb 0.14 in3.6 mm 0.20 in/hr5.1 mm/hr 0.28 in7.1 mm
04:59 AM 56.1°F13.4°C 55.3°F12.9°C 97% 5.0 mph SSW8.0 kmh SSW 12.0 mph19.3 kmh 29.60 in1002.4 mb 0.20 in5.1 mm 0.24 in/hr6.1 mm/hr 0.34 in8.6 mm
05:14 AM 55.0°F12.8°C 54.2°F12.3°C 97% 7.0 mph SSW11.3 kmh SSW 14.0 mph22.5 kmh 29.61 in1002.7 mb 0.21 in5.3 mm 0.01 in/hr0.3 mm/hr 0.36 in9.1 mm
05:29 AM 54.7°F12.6°C 54.1°F12.3°C 98% 4.0 mph SSW6.4 kmh SSW 11.0 mph17.7 kmh 29.61 in1002.7 mb 0.16 in4.1 mm 0.00 in/hr0.0 mm/hr 0.37 in9.4 mm
05:44 AM 54.3°F12.4°C 53.8°F12.1°C 98% 7.0 mph SSW11.3 kmh SSW 18.0 mph29.0 kmh 29.61 in1002.7 mb 0.12 in3.0 mm 0.00 in/hr0.0 mm/hr 0.40 in10.2 mm
05:59 AM 53.8°F12.1°C 53.2°F11.8°C 98% 9.0 mph SSW14.5 kmh SSW 15.0 mph24.1 kmh 29.61 in1002.7 mb 0.06 in1.5 mm 0.00 in/hr0.0 mm/hr 0.40 in10.2 mm
06:14 AM 53.8°F12.1°C 53.2°F11.8°C 98% 8.0 mph SW12.9 kmh SW 14.0 mph22.5 kmh 29.63 in1003.4 mb 0.04 in1.0 mm 0.00 in/hr0.0 mm/hr 0.40 in10.2 mm
06:29 AM 53.4°F11.9°C 52.9°F11.6°C 98% 7.0 mph SW11.3 kmh SW 15.0 mph24.1 kmh 29.64 in1003.7 mb 0.06 in1.5 mm 0.08 in/hr2.0 mm/hr 0.43 in10.9 mm
06:44 AM 53.4°F11.9°C 52.9°F11.6°C 98% 9.0 mph SW14.5 kmh SW 17.0 mph27.4 kmh 29.65 in1004.1 mb 0.07 in1.8 mm 0.04 in/hr1.0 mm/hr 0.47 in11.9 mm
06:59 AM 53.6°F12.0°C 53.0°F11.7°C 98% 6.0 mph SSW9.7 kmh SSW 12.0 mph19.3 kmh 29.65 in1004.1 mb 0.11 in2.8 mm 0.16 in/hr4.1 mm/hr 0.51 in13.0 mm
07:14 AM 53.6°F12.0°C 53.0°F11.7°C 98% 6.0 mph SW9.7 kmh SW 11.0 mph17.7 kmh 29.66 in1004.4 mb 0.13 in3.3 mm 0.03 in/hr0.8 mm/hr 0.53 in13.5 mm
07:29 AM 53.4°F11.9°C 52.9°F11.6°C 98% 7.0 mph SSW11.3 kmh SSW 13.0 mph20.9 kmh 29.66 in1004.4 mb 0.12 in3.0 mm 0.00 in/hr0.0 mm/hr 0.54 in13.7 mm
07:44 AM 53.4°F11.9°C 52.9°F11.6°C 98% 4.0 mph SW6.4 kmh SW 11.0 mph17.7 kmh 29.67 in1004.7 mb 0.07 in1.8 mm 0.00 in/hr0.0 mm/hr 0.54 in13.7 mm
08:08 AM 53.4°F11.9°C 52.9°F11.6°C 98% 5.0 mph SSW8.0 kmh SSW 11.0 mph17.7 kmh 29.68 in1005.1 mb 0.05 in1.3 mm 0.00 in/hr0.0 mm/hr 0.57 in14.5 mm
08:23 AM 53.4°F11.9°C 52.9°F11.6°C 98% 8.0 mph SW12.9 kmh SW 13.0 mph20.9 kmh 29.68 in1005.1 mb 0.06 in1.5 mm 0.04 in/hr1.0 mm/hr 0.61 in15.5 mm
08:38 AM 53.6°F12.0°C 53.3°F11.8°C 99% 6.0 mph SW9.7 kmh SW 13.0 mph20.9 kmh 29.68 in1005.1 mb 0.08 in2.0 mm 0.08 in/hr2.0 mm/hr 0.62 in15.7 mm
08:53 AM 53.2°F11.8°C 52.7°F11.5°C 98% 7.0 mph SSW11.3 kmh SSW 14.0 mph22.5 kmh 29.68 in1005.1 mb 0.09 in2.3 mm 0.04 in/hr1.0 mm/hr 0.63 in16.0 mm
09:08 AM 53.4°F11.9°C 52.9°F11.6°C 98% 5.0 mph SSW8.0 kmh SSW 11.0 mph17.7 kmh 29.68 in1005.1 mb 0.06 in1.5 mm 0.00 in/hr0.0 mm/hr 0.63 in16.0 mm
09:23 AM 53.6°F12.0°C 53.0°F11.7°C 98% 5.0 mph SSW8.0 kmh SSW 10.0 mph16.1 kmh 29.69 in1005.4 mb 0.02 in0.5 mm 0.00 in/hr0.0 mm/hr 0.63 in16.0 mm
09:38 AM 53.4°F11.9°C 52.9°F11.6°C 98% 5.0 mph SSW8.0 kmh SSW 11.0 mph17.7 kmh 29.69 in1005.4 mb 0.01 in0.3 mm 0.00 in/hr0.0 mm/hr 0.63 in16.0 mm
09:53 AM 53.4°F11.9°C 52.9°F11.6°C 98% 6.0 mph SSW9.7 kmh SSW 13.0 mph20.9 kmh 29.70 in1005.8 mb 0.02 in0.5 mm 0.04 in/hr1.0 mm/hr 0.65 in16.5 mm
10:08 AM 53.2°F11.8°C 52.7°F11.5°C 98% 6.0 mph SSW9.7 kmh SSW 12.0 mph19.3 kmh 29.70 in1005.8 mb 0.04 in1.0 mm 0.03 in/hr0.8 mm/hr 0.67 in17.0 mm
10:23 AM 53.2°F11.8°C 52.7°F11.5°C 98% 6.0 mph SSW9.7 kmh SSW 12.0 mph19.3 kmh 29.71 in1006.1 mb 0.06 in1.5 mm 0.08 in/hr2.0 mm/hr 0.69 in17.5 mm
10:38 AM 53.4°F11.9°C 52.9°F11.6°C 98% 5.0 mph SW8.0 kmh SW 11.0 mph17.7 kmh 29.72 in1006.4 mb 0.06 in1.5 mm 0.00 in/hr0.0 mm/hr 0.70 in17.8 mm
10:53 AM 53.4°F11.9°C 52.9°F11.6°C 98% 4.0 mph SSW6.4 kmh SSW 8.0 mph12.9 kmh 29.71 in1006.1 mb 0.09 in2.3 mm 0.12 in/hr3.0 mm/hr 0.74 in18.8 mm
11:08 AM 53.2°F11.8°C 52.7°F11.5°C 98% 7.0 mph SSW11.3 kmh SSW 14.0 mph22.5 kmh 29.71 in1006.1 mb 0.09 in2.3 mm 0.00 in/hr0.0 mm/hr 0.76 in19.3 mm
11:23 AM 53.4°F11.9°C 52.9°F11.6°C 98% 6.0 mph SSW9.7 kmh SSW 13.0 mph20.9 kmh 29.70 in1005.8 mb 0.07 in1.8 mm 0.00 in/hr0.0 mm/hr 0.76 in19.3 mm
11:38 AM 53.6°F12.0°C 53.0°F11.7°C 98% 7.0 mph SSW11.3 kmh SSW 15.0 mph24.1 kmh 29.70 in1005.8 mb 0.07 in1.8 mm 0.00 in/hr0.0 mm/hr 0.76 in19.3 mm
11:53 AM 53.4°F11.9°C 52.9°F11.6°C 98% 7.0 mph SSW11.3 kmh SSW 15.0 mph24.1 kmh 29.70 in1005.8 mb 0.02 in0.5 mm 0.00 in/hr0.0 mm/hr 0.76 in19.3 mm
12:08 PM 53.4°F11.9°C 52.9°F11.6°C 98% 7.0 mph SSW11.3 kmh SSW 15.0 mph24.1 kmh 29.70 in1005.8 mb 0.01 in0.3 mm 0.00 in/hr0.0 mm/hr 0.76 in19.3 mm
12:23 PM 53.4°F11.9°C 52.9°F11.6°C 98% 6.0 mph SSW9.7 kmh SSW 14.0 mph22.5 kmh 29.71 in1006.1 mb 0.01 in0.3 mm 0.00 in/hr0.0 mm/hr 0.76 in19.3 mm
12:38 PM 53.4°F11.9°C 52.9°F11.6°C 98% 8.0 mph SW12.9 kmh SW 14.0 mph22.5 kmh 29.72 in1006.4 mb 0.00 in0.0 mm 0.00 in/hr0.0 mm/hr 0.76 in19.3 mm
12:53 PM 53.2°F11.8°C 52.4°F11.3°C 97% 5.0 mph SSW8.0 kmh SSW 14.0 mph22.5 kmh 29.72 in1006.4 mb 0.00 in0.0 mm 0.00 in/hr0.0 mm/hr 0.76 in19.3 mm
01:08 PM 53.1°F11.7°C 52.5°F11.4°C 98% 5.0 mph SSW8.0 kmh SSW 13.0 mph20.9 kmh 29.72 in1006.4 mb 0.01 in0.3 mm 0.01 in/hr0.3 mm/hr 0.77 in19.6 mm
01:23 PM 53.1°F11.7°C 52.5°F11.4°C 98% 3.0 mph S4.8 kmh S 7.0 mph11.3 kmh 29.73 in1006.8 mb 0.02 in0.5 mm 0.04 in/hr1.0 mm/hr 0.78 in19.8 mm
01:38 PM 53.1°F11.7°C 52.5°F11.4°C 98% 4.0 mph SSW6.4 kmh SSW 10.0 mph16.1 kmh 29.72 in1006.4 mb 0.02 in0.5 mm 0.00 in/hr0.0 mm/hr 0.78 in19.8 mm
01:53 PM 52.9°F11.6°C 52.3°F11.3°C 98% 6.0 mph SSW9.7 kmh SSW 12.0 mph19.3 kmh 29.73 in1006.8 mb 0.02 in0.5 mm 0.00 in/hr0.0 mm/hr 0.80 in20.3 mm
02:08 PM 52.9°F11.6°C 52.3°F11.3°C 98% 6.0 mph SSW9.7 kmh SSW 13.0 mph20.9 kmh 29.72 in1006.4 mb 0.02 in0.5 mm 0.00 in/hr0.0 mm/hr 0.80 in20.3 mm
02:23 PM 52.7°F11.5°C 52.2°F11.2°C 98% 7.0 mph SSW11.3 kmh SSW 14.0 mph22.5 kmh 29.73 in1006.8 mb 0.02 in0.5 mm 0.00 in/hr0.0 mm/hr 0.80 in20.3 mm
02:38 PM 52.5°F11.4°C 52.0°F11.1°C 98% 5.0 mph S8.0 kmh S 11.0 mph17.7 kmh 29.73 in1006.8 mb 0.02 in0.5 mm 0.00 in/hr0.0 mm/hr 0.80 in20.3 mm
02:53 PM 52.7°F11.5°C 51.9°F11.1°C 97% 4.0 mph SSW6.4 kmh SSW 12.0 mph19.3 kmh 29.73 in1006.8 mb 0.02 in0.5 mm 0.00 in/hr0.0 mm/hr 0.80 in20.3 mm
03:08 PM 52.3°F11.3°C 51.8°F11.0°C 98% 6.0 mph SSW9.7 kmh SSW 12.0 mph19.3 kmh 29.73 in1006.8 mb 0.01 in0.3 mm 0.00 in/hr0.0 mm/hr 0.80 in20.3 mm
03:23 PM 52.3°F11.3°C 51.8°F11.0°C 98% 4.0 mph SSW6.4 kmh SSW 11.0 mph17.7 kmh 29.74 in1007.1 mb 0.00 in0.0 mm 0.00 in/hr0.0 mm/hr 0.80 in20.3 mm
03:38 PM 52.2°F11.2°C 51.6°F10.9°C 98% 6.0 mph SSW9.7 kmh SSW 14.0 mph22.5 kmh 29.74 in1007.1 mb 0.00 in0.0 mm 0.00 in/hr0.0 mm/hr 0.80 in20.3 mm
03:53 PM 52.2°F11.2°C 51.3°F10.7°C 97% 4.0 mph S6.4 kmh S 11.0 mph17.7 kmh 29.74 in1007.1 mb 0.00 in0.0 mm 0.00 in/hr0.0 mm/hr 0.80 in20.3 mm
04:08 PM 52.2°F11.2°C 51.3°F10.7°C 97% 4.0 mph SSW6.4 kmh SSW 11.0 mph17.7 kmh 29.74 in1007.1 mb 0.00 in0.0 mm 0.00 in/hr0.0 mm/hr 0.80 in20.3 mm
04:23 PM 51.4°F10.8°C 50.6°F10.3°C 97% 8.0 mph SSW12.9 kmh SSW 16.0 mph25.7 kmh 29.75 in1007.5 mb 0.00 in0.0 mm 0.00 in/hr0.0 mm/hr 0.80 in20.3 mm
04:38 PM 51.1°F10.6°C 50.3°F10.2°C 97% 6.0 mph SSW9.7 kmh SSW 13.0 mph20.9 kmh 29.76 in1007.8 mb 0.00 in0.0 mm 0.00 in/hr0.0 mm/hr 0.80 in20.3 mm
04:53 PM 50.7°F10.4°C 49.9°F9.9°C 97% 5.0 mph SSW8.0 kmh SSW 10.0 mph16.1 kmh 29.76 in1007.8 mb 0.00 in0.0 mm 0.00 in/hr0.0 mm/hr 0.80 in20.3 mm
05:08 PM 50.4°F10.2°C 49.5°F9.7°C 97% 7.0 mph SSW11.3 kmh SSW 13.0 mph20.9 kmh 29.76 in1007.8 mb 0.00 in0.0 mm 0.00 in/hr0.0 mm/hr 0.80 in20.3 mm
05:23 PM 50.4°F10.2°C 49.5°F9.7°C 97% 4.0 mph SSW6.4 kmh SSW 9.0 mph14.5 kmh 29.77 in1008.1 mb 0.00 in0.0 mm 0.00 in/hr0.0 mm/hr 0.80 in20.3 mm
05:38 PM 50.4°F10.2°C 49.5°F9.7°C 97% 4.0 mph SSW6.4 kmh SSW 9.0 mph14.5 kmh 29.77 in1008.1 mb 0.00 in0.0 mm 0.00 in/hr0.0 mm/hr 0.80 in20.3 mm
05:53 PM 50.2°F10.1°C 49.4°F9.7°C 97% 2.0 mph SSW3.2 kmh SSW 5.0 mph8.0 kmh 29.77 in1008.1 mb 0.00 in0.0 mm 0.00 in/hr0.0 mm/hr 0.80 in20.3 mm
06:08 PM 50.2°F10.1°C 49.4°F9.7°C 97% 2.0 mph SSW3.2 kmh SSW 6.0 mph9.7 kmh 29.78 in1008.5 mb 0.00 in0.0 mm 0.00 in/hr0.0 mm/hr 0.80 in20.3 mm
06:23 PM 50.2°F10.1°C 49.4°F9.7°C 97% 1.0 mph S1.6 kmh S 9.0 mph14.5 kmh 29.78 in1008.5 mb 0.01 in0.3 mm 0.04 in/hr1.0 mm/hr 0.81 in20.6 mm
06:38 PM 50.0°F10.0°C 49.2°F9.6°C 97% 2.0 mph SSW3.2 kmh SSW 6.0 mph9.7 kmh 29.78 in1008.5 mb 0.01 in0.3 mm 0.00 in/hr0.0 mm/hr 0.81 in20.6 mm
06:53 PM 49.8°F9.9°C 49.0°F9.4°C 97% 1.0 mph SSW1.6 kmh SSW 5.0 mph8.0 kmh 29.79 in1008.8 mb 0.02 in0.5 mm 0.04 in/hr1.0 mm/hr 0.82 in20.8 mm
07:08 PM 49.6°F9.8°C 48.8°F9.3°C 97% 1.0 mph SW1.6 kmh SW 3.0 mph4.8 kmh 29.79 in1008.8 mb 0.02 in0.5 mm 0.00 in/hr0.0 mm/hr 0.82 in20.8 mm
07:23 PM 49.5°F9.7°C 48.6°F9.2°C 97% 1.0 mph SSW1.6 kmh SSW 5.0 mph8.0 kmh 29.79 in1008.8 mb 0.02 in0.5 mm 0.00 in/hr0.0 mm/hr 0.83 in21.1 mm
07:38 PM 49.1°F9.5°C 48.3°F9.1°C 97% Calm Calm -- 29.79 in1008.8 mb 0.02 in0.5 mm 0.00 in/hr0.0 mm/hr 0.83 in21.1 mm
07:53 PM 49.1°F9.5°C 48.6°F9.2°C 98% Calm Calm -- 29.79 in1008.8 mb 0.01 in0.3 mm 0.00 in/hr0.0 mm/hr 0.83 in21.1 mm
08:08 PM 49.3°F9.6°C 48.7°F9.3°C 98% Calm Calm -- 29.80 in1009.1 mb 0.01 in0.3 mm 0.00 in/hr0.0 mm/hr 0.83 in21.1 mm
08:23 PM 49.5°F9.7°C 48.9°F9.4°C 98% 1.0 mph WNW1.6 kmh WNW 4.0 mph6.4 kmh 29.80 in1009.1 mb 0.00 in0.0 mm 0.00 in/hr0.0 mm/hr 0.83 in21.1 mm
08:38 PM 49.3°F9.6°C 48.7°F9.3°C 98% 1.0 mph N1.6 kmh N 4.0 mph6.4 kmh 29.80 in1009.1 mb 0.00 in0.0 mm 0.00 in/hr0.0 mm/hr 0.83 in21.1 mm
08:53 PM 49.3°F9.6°C 48.7°F9.3°C 98% 1.0 mph N1.6 kmh N 2.0 mph3.2 kmh 29.80 in1009.1 mb 0.00 in0.0 mm 0.00 in/hr0.0 mm/hr 0.83 in21.1 mm
09:08 PM 49.3°F9.6°C 48.7°F9.3°C 98% 1.0 mph N1.6 kmh N 4.0 mph6.4 kmh 29.80 in1009.1 mb 0.00 in0.0 mm 0.00 in/hr0.0 mm/hr 0.83 in21.1 mm
09:23 PM 49.3°F9.6°C 48.7°F9.3°C 98% Calm Calm 2.0 mph3.2 kmh 29.80 in1009.1 mb 0.00 in0.0 mm 0.00 in/hr0.0 mm/hr 0.83 in21.1 mm
09:38 PM 49.1°F9.5°C 48.6°F9.2°C 98% Calm Calm 2.0 mph3.2 kmh 29.80 in1009.1 mb 0.00 in0.0 mm 0.00 in/hr0.0 mm/hr 0.83 in21.1 mm
09:53 PM 49.1°F9.5°C 48.6°F9.2°C 98% 1.0 mph N1.6 kmh N 4.0 mph6.4 kmh 29.80 in1009.1 mb 0.00 in0.0 mm 0.00 in/hr0.0 mm/hr 0.83 in21.1 mm
10:08 PM 49.1°F9.5°C 48.6°F9.2°C 98% 1.0 mph N1.6 kmh N 4.0 mph6.4 kmh 29.80 in1009.1 mb 0.00 in0.0 mm 0.00 in/hr0.0 mm/hr 0.50 in12.7 mm
10:23 PM 49.1°F9.5°C 48.6°F9.2°C 98% 2.0 mph N3.2 kmh N 6.0 mph9.7 kmh 29.80 in1009.1 mb 0.00 in0.0 mm 0.00 in/hr0.0 mm/hr 0.50 in12.7 mm
10:38 PM 48.9°F9.4°C 48.4°F9.1°C 98% 2.0 mph NNW3.2 kmh NNW 5.0 mph8.0 kmh 29.80 in1009.1 mb 0.00 in0.0 mm 0.00 in/hr0.0 mm/hr 0.50 in12.7 mm
10:53 PM 48.9°F9.4°C 48.4°F9.1°C 98% 1.0 mph NNW1.6 kmh NNW 4.0 mph6.4 kmh 29.80 in1009.1 mb 0.00 in0.0 mm 0.00 in/hr0.0 mm/hr 0.50 in12.7 mm
11:08 PM 48.9°F9.4°C 48.4°F9.1°C 98% 1.0 mph N1.6 kmh N 4.0 mph6.4 kmh 29.80 in1009.1 mb 0.00 in0.0 mm 0.00 in/hr0.0 mm/hr 0.50 in12.7 mm
11:23 PM 48.7°F9.3°C 48.2°F9.0°C 98% 2.0 mph N3.2 kmh N 4.0 mph6.4 kmh 29.80 in1009.1 mb 0.00 in0.0 mm 0.00 in/hr0.0 mm/hr 0.50 in12.7 mm
11:38 PM 48.7°F9.3°C 48.2°F9.0°C 98% 1.0 mph NNE1.6 kmh NNE 5.0 mph8.0 kmh 29.80 in1009.1 mb 0.00 in0.0 mm 0.00 in/hr0.0 mm/hr 0.50 in12.7 mm
11:53 PM 48.7°F9.3°C 48.2°F9.0°C 98% Calm Calm 2.0 mph3.2 kmh 29.80 in1009.1 mb 0.00 in0.0 mm 0.00 in/hr0.0 mm/hr 0.50 in12.7 mm